createdAt,value
2023-03-06T00:01:28.641Z,97608.57
2023-03-06T00:03:55.403Z,97610.23
2023-03-06T00:06:22.441Z,97606.54
2023-03-06T00:08:49.242Z,97608.88
2023-03-06T00:11:15.969Z,97611.13
2023-03-06T00:13:42.681Z,97611.16
2023-03-06T00:16:09.623Z,97606.55
2023-03-06T00:18:36.475Z,97603.77
2023-03-06T00:21:07.392Z,97601.55
2023-03-06T00:23:34.299Z,97600.52
2023-03-06T00:26:01.167Z,97600.20
2023-03-06T00:28:30.931Z,97595.73
2023-03-06T00:30:57.668Z,97593.39
2023-03-06T00:33:24.419Z,97593.96
2023-03-06T00:35:55.156Z,97589.14
2023-03-06T00:38:22.153Z,97589.02
2023-03-06T00:40:50.061Z,97591.56
2023-03-06T00:43:16.804Z,97591.67
2023-03-06T00:45:43.578Z,97590.10
2023-03-06T00:48:10.351Z,97590.13
2023-03-06T00:50:37.640Z,97587.65
2023-03-06T00:53:04.423Z,97589.51
2023-03-06T00:55:33.015Z,97590.15
2023-03-06T00:57:59.917Z,97585.10
2023-03-06T01:00:27.361Z,97589.21
2023-03-06T01:02:54.116Z,97593.42
2023-03-06T01:05:22.151Z,97603.27
2023-03-06T01:07:49.054Z,97600.77
2023-03-06T01:10:15.860Z,97598.50
2023-03-06T01:12:42.797Z,97598.64
2023-03-06T01:15:12.967Z,97598.27
2023-03-06T01:17:39.960Z,97598.84
2023-03-06T01:20:07.840Z,97593.69
2023-03-06T01:22:35.649Z,97600.20
2023-03-06T01:25:02.377Z,97602.80
2023-03-06T01:27:29.130Z,97602.89
2023-03-06T01:29:55.999Z,97602.00
2023-03-06T01:32:22.920Z,97600.66
2023-03-06T01:34:49.895Z,97596.77
2023-03-06T01:37:16.901Z,97597.55
2023-03-06T01:39:43.743Z,97596.70
2023-03-06T01:42:11.920Z,97598.33
2023-03-06T01:44:59.130Z,97594.02
2023-03-06T01:47:26.134Z,97595.27
2023-03-06T01:49:53.516Z,97595.45
2023-03-06T01:52:26.066Z,97595.45
2023-03-06T01:54:59.616Z,97593.34
2023-03-06T01:57:32.607Z,97587.09
2023-03-06T02:00:08.324Z,97586.04
2023-03-06T02:02:48.194Z,97586.34
2023-03-06T02:05:15.153Z,97589.05
2023-03-06T02:07:43.183Z,97583.60
2023-03-06T02:10:14.865Z,97579.46
2023-03-06T02:12:43.766Z,97577.05
2023-03-06T02:15:12.738Z,97575.30
2023-03-06T02:17:40.451Z,97571.20
2023-03-06T02:20:10.756Z,97572.34
2023-03-06T02:23:00.329Z,97574.48
2023-03-06T02:25:45.401Z,97573.63
2023-03-06T02:28:14.978Z,97566.96
2023-03-06T02:30:44.177Z,97563.16
2023-03-06T02:33:15.003Z,97566.19
2023-03-06T02:35:49.846Z,97563.36
2023-03-06T02:38:19.623Z,97557.20
2023-03-06T02:40:49.651Z,97558.95
2023-03-06T02:43:22.273Z,97558.78
2023-03-06T02:45:51.274Z,97555.67
2023-03-06T02:48:19.948Z,97562.36
2023-03-06T02:50:48.425Z,97565.98
2023-03-06T02:53:18.100Z,97564.45
2023-03-06T02:55:44.994Z,97558.14
2023-03-06T02:58:12.366Z,97555.89
2023-03-06T03:00:40.261Z,97557.34
2023-03-06T03:03:08.956Z,97557.50
2023-03-06T03:05:35.700Z,97559.13
2023-03-06T03:08:10.249Z,97552.91
2023-03-06T03:10:37.146Z,97549.04
2023-03-06T03:13:04.012Z,97553.05
2023-03-06T03:15:31.007Z,97556.62
2023-03-06T03:17:57.749Z,97554.53
2023-03-06T03:20:24.548Z,97555.82
2023-03-06T03:22:55.002Z,97551.15
2023-03-06T03:25:24.331Z,97553.73
2023-03-06T03:27:51.815Z,97546.26
2023-03-06T03:30:20.161Z,97541.23
2023-03-06T03:32:47.058Z,97534.98
2023-03-06T03:35:13.826Z,97534.13
2023-03-06T03:37:41.519Z,97532.13
2023-03-06T03:40:10.377Z,97534.04
2023-03-06T03:42:38.458Z,97532.89
2023-03-06T03:45:06.083Z,97526.95
2023-03-06T03:47:32.910Z,97519.33
2023-03-06T03:50:00.228Z,97524.15
2023-03-06T03:52:27.335Z,97522.29
2023-03-06T03:54:54.734Z,97524.11
2023-03-06T03:57:22.349Z,97525.77
2023-03-06T03:59:50.887Z,97521.76
2023-03-06T04:02:25.550Z,97515.92
2023-03-06T04:05:08.349Z,97514.68
2023-03-06T04:07:35.506Z,97513.06
2023-03-06T04:10:04.139Z,97512.34
2023-03-06T04:12:31.084Z,97512.25
2023-03-06T04:14:58.206Z,97508.74
2023-03-06T04:17:26.035Z,97508.80
2023-03-06T04:19:54.294Z,97510.30
2023-03-06T04:22:22.232Z,97509.02
2023-03-06T04:24:49.996Z,97514.39
2023-03-06T04:27:17.561Z,97513.79
2023-03-06T04:29:44.856Z,97509.45
2023-03-06T04:32:11.858Z,97505.36
2023-03-06T04:34:39.443Z,97507.41
2023-03-06T04:37:06.378Z,97505.44
2023-03-06T04:39:33.185Z,97505.17
2023-03-06T04:41:59.882Z,97503.79
2023-03-06T04:44:26.894Z,97508.99
2023-03-06T04:46:53.752Z,97508.16
2023-03-06T04:49:20.836Z,97504.06
2023-03-06T04:51:47.621Z,97503.82
2023-03-06T04:54:14.376Z,97505.48
2023-03-06T04:56:41.107Z,97502.63
2023-03-06T04:59:08.233Z,97505.02
2023-03-06T05:01:36.326Z,97504.40
2023-03-06T05:04:03.690Z,97495.09
2023-03-06T05:06:30.449Z,97493.64
2023-03-06T05:08:59.543Z,97496.95
2023-03-06T05:11:26.341Z,97495.06
2023-03-06T05:13:54.338Z,97493.29
2023-03-06T05:16:21.340Z,97494.05
2023-03-06T05:18:50.511Z,97495.63
2023-03-06T05:21:17.744Z,97492.34
2023-03-06T05:23:44.593Z,97484.81
2023-03-06T05:26:13.539Z,97486.08
2023-03-06T05:28:41.419Z,97484.70
2023-03-06T05:31:08.393Z,97489.95
2023-03-06T05:33:36.489Z,97492.14
2023-03-06T05:36:04.337Z,97493.35
2023-03-06T05:38:32.330Z,97492.87
2023-03-06T05:40:59.144Z,97491.55
2023-03-06T05:43:25.876Z,97485.94
2023-03-06T05:46:01.490Z,97480.61
2023-03-06T05:48:28.349Z,97475.95
2023-03-06T05:50:57.246Z,97473.25
2023-03-06T05:53:26.955Z,97469.84
2023-03-06T05:55:59.244Z,97470.46
2023-03-06T05:58:26.885Z,97474.11
2023-03-06T06:00:53.932Z,97473.55
2023-03-06T06:03:21.179Z,97476.39
2023-03-06T06:05:51.674Z,97470.83
2023-03-06T06:08:21.275Z,97466.10
2023-03-06T06:10:48.001Z,97462.00
2023-03-06T06:13:14.959Z,97461.14
2023-03-06T06:15:41.728Z,97457.19
2023-03-06T06:18:08.533Z,97460.69
2023-03-06T06:20:37.583Z,97461.48
2023-03-06T06:23:04.720Z,97459.97
2023-03-06T06:25:31.914Z,97463.75
2023-03-06T06:27:58.614Z,97462.83
2023-03-06T06:30:25.457Z,97462.77
2023-03-06T06:32:53.227Z,97462.48
2023-03-06T06:35:20.179Z,97472.04
2023-03-06T06:37:47.000Z,97469.23
2023-03-06T06:40:15.049Z,97472.98
2023-03-06T06:42:43.340Z,97473.89
2023-03-06T06:45:11.339Z,97470.44
2023-03-06T06:47:41.625Z,97468.14
2023-03-06T06:50:13.182Z,97468.79
2023-03-06T06:52:40.173Z,97466.34
2023-03-06T06:55:08.236Z,97467.80
2023-03-06T06:57:35.137Z,97467.18
2023-03-06T07:00:02.384Z,97468.88
2023-03-06T07:02:29.146Z,97464.30
2023-03-06T07:05:04.058Z,97469.06
2023-03-06T07:07:35.705Z,97465.69
2023-03-06T07:10:05.622Z,97463.26
2023-03-06T07:12:33.035Z,97465.21
2023-03-06T07:14:59.791Z,97468.20
2023-03-06T07:17:26.559Z,97465.98
2023-03-06T07:19:53.315Z,97469.89
2023-03-06T07:22:21.318Z,97469.88
2023-03-06T07:24:48.130Z,97467.56
2023-03-06T07:27:14.877Z,97469.17
2023-03-06T07:29:43.709Z,97466.77
2023-03-06T07:32:11.450Z,97469.90
2023-03-06T07:35:02.724Z,97472.05
2023-03-06T07:37:39.877Z,97471.83
2023-03-06T07:40:09.600Z,97473.06
2023-03-06T07:42:36.440Z,97477.40
2023-03-06T07:45:05.138Z,97479.61
2023-03-06T07:47:45.690Z,97479.21
2023-03-06T07:50:12.905Z,97475.64
2023-03-06T07:52:39.777Z,97476.89
2023-03-06T07:55:07.134Z,97472.09
2023-03-06T07:57:33.878Z,97475.73
2023-03-06T08:00:00.754Z,97479.71
2023-03-06T08:02:27.551Z,97480.43
2023-03-06T08:04:55.488Z,97483.31
2023-03-06T08:07:23.000Z,97482.41
2023-03-06T08:09:49.894Z,97485.40
2023-03-06T08:12:16.767Z,97483.52
2023-03-06T08:14:43.562Z,97482.16
2023-03-06T08:17:11.470Z,97484.40
2023-03-06T08:19:38.500Z,97481.30
2023-03-06T08:22:06.667Z,97483.68
2023-03-06T08:24:34.682Z,97483.95
2023-03-06T08:27:01.401Z,97483.02
2023-03-06T08:29:28.184Z,97483.63
2023-03-06T08:31:55.038Z,97486.84
2023-03-06T08:34:24.427Z,97482.98
2023-03-06T08:36:51.561Z,97484.86
2023-03-06T08:39:19.203Z,97491.00
2023-03-06T08:41:45.962Z,97490.54
2023-03-06T08:44:13.039Z,97492.14
2023-03-06T08:46:40.354Z,97490.11
2023-03-06T08:49:07.525Z,97489.92
2023-03-06T08:51:34.409Z,97486.66
2023-03-06T08:54:02.441Z,97487.42
2023-03-06T08:56:32.311Z,97487.61
2023-03-06T08:59:01.786Z,97488.67
2023-03-06T09:01:35.684Z,97489.79
2023-03-06T09:04:05.594Z,97490.73
2023-03-06T09:06:36.290Z,97486.27
2023-03-06T09:09:04.072Z,97477.38
2023-03-06T09:11:31.284Z,97480.23
2023-03-06T09:13:59.841Z,97483.38
2023-03-06T09:16:27.466Z,97481.51
2023-03-06T09:18:54.482Z,97477.75
2023-03-06T09:21:22.689Z,97476.59
2023-03-06T09:23:50.008Z,97475.09
2023-03-06T09:26:17.673Z,97476.16
2023-03-06T09:28:44.437Z,97478.72
2023-03-06T09:31:13.885Z,97477.55
2023-03-06T09:33:40.907Z,97479.98
2023-03-06T09:36:13.834Z,97475.95
2023-03-06T09:38:40.635Z,97476.46
2023-03-06T09:41:11.784Z,97474.79
2023-03-06T09:43:43.603Z,97476.23
2023-03-06T09:46:23.826Z,97475.02
2023-03-06T09:48:51.823Z,97472.46
2023-03-06T09:51:32.764Z,97465.45
2023-03-06T09:54:08.413Z,97460.58
2023-03-06T09:56:37.055Z,97454.39
2023-03-06T09:59:13.440Z,97456.42
2023-03-06T10:01:44.980Z,97457.11
2023-03-06T10:04:44.046Z,97455.79
2023-03-06T10:07:15.781Z,97457.21
2023-03-06T10:09:47.654Z,97459.82
2023-03-06T10:12:24.825Z,97455.52
2023-03-06T10:15:27.158Z,97458.98
2023-03-06T10:17:57.207Z,97453.43
2023-03-06T10:20:28.750Z,97447.70
2023-03-06T10:23:25.164Z,97443.67
2023-03-06T10:26:02.332Z,97441.09
2023-03-06T10:28:36.505Z,97436.88
2023-03-06T10:31:12.357Z,97437.64
2023-03-06T10:33:47.505Z,97434.08
2023-03-06T10:36:18.861Z,97430.65
2023-03-06T10:38:48.775Z,97431.07
2023-03-06T10:41:24.371Z,97422.52
2023-03-06T10:44:08.097Z,97425.48
2023-03-06T10:46:37.544Z,97428.27
2023-03-06T10:49:21.923Z,97426.91
2023-03-06T10:52:05.495Z,97423.45
2023-03-06T10:54:42.591Z,97416.63
2023-03-06T10:57:26.558Z,97410.92
2023-03-06T10:59:56.014Z,97405.13
2023-03-06T11:02:36.807Z,97401.34
2023-03-06T11:05:05.586Z,97396.90
2023-03-06T11:07:35.233Z,97390.27
2023-03-06T11:10:19.958Z,97384.61
2023-03-06T11:13:07.694Z,97382.66
2023-03-06T11:15:39.914Z,97381.49
2023-03-06T11:18:07.668Z,97374.48
2023-03-06T11:20:52.634Z,97375.75
2023-03-06T11:23:44.380Z,97374.27
2023-03-06T11:26:20.368Z,97371.34
2023-03-06T11:28:50.001Z,97368.02
2023-03-06T11:31:21.501Z,97363.39
2023-03-06T11:33:54.308Z,97369.41
2023-03-06T11:36:31.509Z,97366.00
2023-03-06T11:38:59.945Z,97361.27
2023-03-06T11:41:48.697Z,97360.81
2023-03-06T11:44:24.695Z,97362.82
2023-03-06T11:47:05.930Z,97360.55
2023-03-06T11:49:40.733Z,97354.09
2023-03-06T11:52:22.214Z,97353.11
2023-03-06T11:54:55.010Z,97349.80
2023-03-06T11:57:30.856Z,97349.65
2023-03-06T12:00:08.373Z,97346.36
2023-03-06T12:02:44.268Z,97347.88
2023-03-06T12:05:41.773Z,97338.34
2023-03-06T12:08:26.663Z,97335.11
2023-03-06T12:11:15.101Z,97333.91
2023-03-06T12:13:59.447Z,97326.05
2023-03-06T12:16:58.697Z,97325.02
2023-03-06T12:19:33.198Z,97323.23
2023-03-06T12:22:01.333Z,97318.70
2023-03-06T12:24:58.191Z,97315.92
2023-03-06T12:27:41.204Z,97310.38
2023-03-06T12:30:24.517Z,97306.55
2023-03-06T12:33:14.482Z,97301.09
2023-03-06T12:35:58.364Z,97298.58
2023-03-06T12:38:34.769Z,97295.86
2023-03-06T12:41:32.106Z,97295.49
2023-03-06T12:44:34.948Z,97290.95
2023-03-06T12:47:08.959Z,97289.81
2023-03-06T12:49:38.845Z,97287.55
2023-03-06T12:52:09.782Z,97285.66
2023-03-06T12:54:40.339Z,97284.43
2023-03-06T12:57:09.405Z,97280.54
2023-03-06T12:59:44.164Z,97274.59
2023-03-06T13:02:17.810Z,97273.88
2023-03-06T13:05:07.341Z,97272.61
2023-03-06T13:07:42.357Z,97268.13
2023-03-06T13:10:09.496Z,97263.80
2023-03-06T13:12:42.095Z,97267.33
2023-03-06T13:15:36.388Z,97261.11
2023-03-06T13:18:23.150Z,97269.11
2023-03-06T13:20:51.570Z,97265.48
2023-03-06T13:23:33.837Z,97261.90
2023-03-06T13:26:02.092Z,97256.02
2023-03-06T13:28:46.225Z,97247.43
2023-03-06T13:31:26.638Z,97249.65
2023-03-06T13:34:03.016Z,97250.06
2023-03-06T13:36:35.882Z,97248.89
2023-03-06T13:39:07.141Z,97246.59
2023-03-06T13:41:37.644Z,97244.05
2023-03-06T13:44:24.640Z,97243.23
2023-03-06T13:47:18.726Z,97239.58
2023-03-06T13:49:48.795Z,97240.77
2023-03-06T13:52:29.586Z,97243.48
2023-03-06T13:55:00.961Z,97241.25
2023-03-06T13:57:44.450Z,97240.24
2023-03-06T14:00:30.043Z,97246.08
2023-03-06T14:03:19.506Z,97235.02
2023-03-06T14:05:48.375Z,97234.81
2023-03-06T14:08:18.944Z,97233.70
2023-03-06T14:10:47.612Z,97228.61
2023-03-06T14:13:16.021Z,97228.87
2023-03-06T14:15:47.653Z,97227.44
2023-03-06T14:18:37.214Z,97230.25
2023-03-06T14:21:09.090Z,97227.84
2023-03-06T14:23:42.609Z,97226.61
2023-03-06T14:26:19.311Z,97223.53
2023-03-06T14:28:53.387Z,97226.34
2023-03-06T14:31:23.011Z,97230.54
2023-03-06T14:33:58.408Z,97230.55
2023-03-06T14:36:34.988Z,97228.43
2023-03-06T14:39:11.601Z,97227.11
2023-03-06T14:41:39.573Z,97226.05
2023-03-06T14:44:22.054Z,97229.27
2023-03-06T14:46:55.184Z,97227.95
2023-03-06T14:49:25.421Z,97226.07
2023-03-06T14:51:55.377Z,97231.35
2023-03-06T14:54:29.212Z,97230.84
2023-03-06T14:57:02.503Z,97238.93
2023-03-06T14:59:34.235Z,97245.52
2023-03-06T15:02:05.719Z,97256.46
2023-03-06T15:04:36.694Z,97253.00
2023-03-06T15:07:12.111Z,97257.40
2023-03-06T15:09:43.784Z,97259.14
2023-03-06T15:12:27.824Z,97260.21
2023-03-06T15:15:00.762Z,97258.42
2023-03-06T15:17:27.703Z,97260.46
2023-03-06T15:19:57.905Z,97265.57
2023-03-06T15:22:32.392Z,97263.33
2023-03-06T15:25:16.029Z,97262.70
2023-03-06T15:27:49.427Z,97267.40
2023-03-06T15:30:35.746Z,97261.42
2023-03-06T15:33:24.206Z,97256.92
2023-03-06T15:35:55.120Z,97260.63
2023-03-06T15:38:30.202Z,97259.38
2023-03-06T15:40:59.612Z,97258.42
2023-03-06T15:43:31.904Z,97263.16
2023-03-06T15:46:00.892Z,97265.27
2023-03-06T15:48:28.536Z,97272.98
2023-03-06T15:50:55.465Z,97278.59
2023-03-06T15:53:22.224Z,97280.13
2023-03-06T15:55:51.721Z,97280.86
2023-03-06T15:58:23.553Z,97287.45
2023-03-06T16:00:50.962Z,97284.79
2023-03-06T16:03:18.069Z,97283.34
2023-03-06T16:05:44.861Z,97282.98
2023-03-06T16:08:15.073Z,97284.67
2023-03-06T16:10:43.935Z,97286.44
2023-03-06T16:13:28.080Z,97287.38
2023-03-06T16:15:55.206Z,97279.73
2023-03-06T16:18:21.911Z,97276.61
2023-03-06T16:20:49.467Z,97275.34
2023-03-06T16:23:16.584Z,97277.07
2023-03-06T16:25:48.691Z,97280.18
2023-03-06T16:28:16.494Z,97273.20
2023-03-06T16:30:44.900Z,97272.06
2023-03-06T16:33:13.070Z,97274.27
2023-03-06T16:35:41.278Z,97271.37
2023-03-06T16:38:10.204Z,97271.11
2023-03-06T16:40:41.297Z,97268.48
2023-03-06T16:43:10.392Z,97266.22
2023-03-06T16:45:40.823Z,97267.01
2023-03-06T16:48:10.584Z,97267.48
2023-03-06T16:50:40.912Z,97265.50
2023-03-06T16:53:08.310Z,97264.63
2023-03-06T16:55:35.094Z,97266.20
2023-03-06T16:58:02.122Z,97259.56
2023-03-06T17:00:31.920Z,97263.23
2023-03-06T17:03:00.147Z,97260.09
2023-03-06T17:05:28.771Z,97256.09
2023-03-06T17:07:56.410Z,97267.58
2023-03-06T17:10:26.408Z,97270.59
2023-03-06T17:12:54.044Z,97273.88
2023-03-06T17:15:20.974Z,97273.48
2023-03-06T17:17:48.580Z,97274.42
2023-03-06T17:20:15.477Z,97276.08
2023-03-06T17:22:42.290Z,97278.73
2023-03-06T17:25:09.809Z,97280.13
2023-03-06T17:27:37.508Z,97282.98
2023-03-06T17:30:05.438Z,97283.70
2023-03-06T17:32:32.961Z,97287.98
2023-03-06T17:35:00.166Z,97285.64
2023-03-06T17:37:27.104Z,97287.41
2023-03-06T17:39:54.043Z,97287.48
2023-03-06T17:42:20.768Z,97282.15
2023-03-06T17:44:48.056Z,97279.91
2023-03-06T17:47:14.830Z,97279.77
2023-03-06T17:49:41.709Z,97279.55
2023-03-06T17:52:09.375Z,97279.33
2023-03-06T17:54:36.376Z,97282.88
2023-03-06T17:57:05.417Z,97279.20
2023-03-06T17:59:34.493Z,97284.40
2023-03-06T18:02:02.214Z,97284.20
2023-03-06T18:04:29.471Z,97284.16
2023-03-06T18:06:57.193Z,97285.90
2023-03-06T18:09:24.625Z,97288.50
2023-03-06T18:11:51.658Z,97289.05
2023-03-06T18:14:18.633Z,97294.14
2023-03-06T18:16:45.400Z,97291.48
2023-03-06T18:19:12.365Z,97294.35
2023-03-06T18:21:40.142Z,97293.95
2023-03-06T18:24:07.418Z,97293.63
2023-03-06T18:26:34.168Z,97295.05
2023-03-06T18:29:04.608Z,97292.66
2023-03-06T18:31:35.412Z,97295.80
2023-03-06T18:34:06.630Z,97299.73
2023-03-06T18:36:34.448Z,97299.66
2023-03-06T18:39:03.945Z,97302.80
2023-03-06T18:41:31.701Z,97303.45
2023-03-06T18:44:00.537Z,97302.73
2023-03-06T18:46:33.315Z,97299.29
2023-03-06T18:49:01.242Z,97299.48
2023-03-06T18:51:28.788Z,97297.73
2023-03-06T18:53:58.272Z,97298.49
2023-03-06T18:56:25.295Z,97296.66
2023-03-06T18:58:52.924Z,97295.80
2023-03-06T19:01:20.805Z,97298.11
2023-03-06T19:03:47.612Z,97295.54
2023-03-06T19:06:16.968Z,97295.27
2023-03-06T19:08:44.267Z,97294.67
2023-03-06T19:11:14.917Z,97290.63
2023-03-06T19:13:42.490Z,97286.33
2023-03-06T19:16:16.016Z,97289.52
2023-03-06T19:18:42.747Z,97289.80
2023-03-06T19:21:14.352Z,97287.61
2023-03-06T19:23:42.337Z,97288.66
2023-03-06T19:26:09.746Z,97291.11
2023-03-06T19:28:39.011Z,97286.05
2023-03-06T19:31:10.485Z,97282.52
2023-03-06T19:33:37.937Z,97282.80
2023-03-06T19:36:06.661Z,97280.62
2023-03-06T19:38:34.036Z,97275.67
2023-03-06T19:41:01.039Z,97275.81
2023-03-06T19:43:29.070Z,97275.70
2023-03-06T19:45:56.942Z,97274.26
2023-03-06T19:48:24.149Z,97270.20
2023-03-06T19:50:50.861Z,97269.44
2023-03-06T19:53:17.773Z,97264.31
2023-03-06T19:55:44.507Z,97263.68
2023-03-06T19:58:11.938Z,97263.66
2023-03-06T20:00:38.732Z,97267.70
2023-03-06T20:03:05.676Z,97265.90
2023-03-06T20:05:32.782Z,97266.09
2023-03-06T20:07:59.659Z,97272.51
2023-03-06T20:10:26.438Z,97270.60
2023-03-06T20:12:53.191Z,97269.70
2023-03-06T20:15:22.171Z,97271.27
2023-03-06T20:17:48.971Z,97268.80
2023-03-06T20:20:16.127Z,97264.64
2023-03-06T20:22:42.968Z,97269.58
2023-03-06T20:25:09.970Z,97272.12
2023-03-06T20:27:37.129Z,97271.46
2023-03-06T20:30:19.322Z,97271.72
2023-03-06T20:32:46.047Z,97271.81
2023-03-06T20:35:28.533Z,97272.70
2023-03-06T20:37:55.486Z,97269.33
2023-03-06T20:40:22.187Z,97269.71
2023-03-06T20:42:48.976Z,97267.73
2023-03-06T20:45:15.857Z,97268.55
2023-03-06T20:47:47.208Z,97270.41
2023-03-06T20:50:15.746Z,97268.08
2023-03-06T20:52:42.528Z,97268.52
2023-03-06T20:55:09.477Z,97271.35
2023-03-06T20:57:36.245Z,97269.09
2023-03-06T21:00:05.068Z,97269.66
2023-03-06T21:02:31.916Z,97269.89
2023-03-06T21:05:00.798Z,97268.40
2023-03-06T21:07:27.608Z,97269.10
2023-03-06T21:09:54.475Z,97267.79
2023-03-06T21:12:21.228Z,97267.33
2023-03-06T21:14:48.016Z,97268.41
2023-03-06T21:17:14.817Z,97268.94
2023-03-06T21:19:41.780Z,97265.71
2023-03-06T21:22:08.812Z,97267.81
2023-03-06T21:24:35.737Z,97265.64
2023-03-06T21:27:02.456Z,97262.48
2023-03-06T21:29:29.899Z,97263.23
2023-03-06T21:31:56.789Z,97263.63
2023-03-06T21:34:23.519Z,97260.08
2023-03-06T21:36:51.241Z,97261.91
2023-03-06T21:39:17.988Z,97263.36
2023-03-06T21:41:44.697Z,97263.20
2023-03-06T21:44:11.530Z,97261.15
2023-03-06T21:46:38.248Z,97259.66
2023-03-06T21:49:05.268Z,97255.05
2023-03-06T21:51:32.599Z,97256.48
2023-03-06T21:53:59.373Z,97258.81
2023-03-06T21:56:28.451Z,97258.26
2023-03-06T21:58:55.951Z,97256.67
2023-03-06T22:01:26.286Z,97254.11
2023-03-06T22:03:53.289Z,97254.02
2023-03-06T22:06:24.238Z,97256.09
2023-03-06T22:08:51.466Z,97253.55
2023-03-06T22:11:20.668Z,97252.90
2023-03-06T22:13:48.504Z,97255.30
2023-03-06T22:16:16.920Z,97250.95
2023-03-06T22:18:45.783Z,97251.40
2023-03-06T22:21:14.900Z,97254.00
2023-03-06T22:23:41.842Z,97248.41
2023-03-06T22:26:12.630Z,97247.79
2023-03-06T22:28:40.635Z,97243.38
2023-03-06T22:31:09.836Z,97243.71
2023-03-06T22:33:37.064Z,97249.27
2023-03-06T22:36:07.247Z,97247.47
2023-03-06T22:38:35.705Z,97247.77
2023-03-06T22:41:03.818Z,97248.75
2023-03-06T22:43:31.170Z,97246.39
2023-03-06T22:46:15.204Z,97243.58
2023-03-06T22:48:42.636Z,97248.14
2023-03-06T22:51:13.609Z,97245.98
2023-03-06T22:53:40.590Z,97243.61
2023-03-06T22:56:09.865Z,97248.19
2023-03-06T22:58:37.475Z,97246.32
2023-03-06T23:01:07.508Z,97244.57
2023-03-06T23:03:36.188Z,97247.26
2023-03-06T23:06:09.114Z,97247.90
2023-03-06T23:08:36.084Z,97244.17
2023-03-06T23:11:08.505Z,97246.92
2023-03-06T23:13:50.811Z,97246.36
2023-03-06T23:16:33.254Z,97243.83
2023-03-06T23:19:15.646Z,97247.55
2023-03-06T23:21:57.703Z,97241.66
2023-03-06T23:24:40.031Z,97242.57
2023-03-06T23:27:06.878Z,97240.90
2023-03-06T23:29:33.575Z,97241.55
2023-03-06T23:32:00.343Z,97245.08
2023-03-06T23:34:27.153Z,97241.66
2023-03-06T23:36:53.865Z,97243.31
2023-03-06T23:39:21.662Z,97243.80
2023-03-06T23:41:48.507Z,97241.30
2023-03-06T23:44:15.220Z,97246.20
2023-03-06T23:46:42.585Z,97245.38
2023-03-06T23:49:09.309Z,97246.41
2023-03-06T23:51:36.041Z,97246.39
2023-03-06T23:54:02.841Z,97247.20
2023-03-06T23:56:29.634Z,97248.38
2023-03-06T23:58:56.422Z,97250.39
